Time;durP1;ratioP1;P1;durP2;ratioP2;P2;SDS_P1;SDS_P2;PMS_P1;PMS_P2;Temp;Humidity;BMP_temperature;BMP_pressure;BME280_temperature;BME280_humidity;BME280_pressure;Samples;Min_cycle;Max_cycle;Signal;HPM_P1;HPM_P2
2024/04/18 00:01:31;;;;;;;4.18;0.93;;;11.40;47.70;;;;;;5383742;26;20334;-48
2024/04/18 00:04:16;;;;;;;1.83;0.75;;;11.40;47.70;;;;;;5366835;26;20077;-50
2024/04/18 00:07:02;;;;;;;2.63;0.80;;;11.30;47.50;;;;;;5377263;26;20069;-51
2024/04/18 00:09:46;;;;;;;3.58;0.80;;;11.30;47.50;;;;;;5385070;26;20017;-48
2024/04/18 00:12:49;;;;;;;3.27;1.00;;;11.30;47.60;;;;;;5385445;26;20018;-51
2024/04/18 00:15:39;;;;;;;2.10;1.00;;;11.30;47.60;;;;;;5362203;26;20355;-53
2024/04/18 00:18:24;;;;;;;3.20;1.00;;;11.20;47.40;;;;;;5345997;26;20133;-47
2024/04/18 00:21:09;;;;;;;2.10;0.77;;;11.20;47.40;;;;;;5349612;26;20015;-49
2024/04/18 00:24:11;;;;;;;2.42;1.05;;;11.10;47.30;;;;;;5348612;26;20014;-51
2024/04/18 00:27:08;;;;;;;2.65;1.90;;;11.10;47.30;;;;;;5311218;26;20078;-51
2024/04/18 00:29:53;;;;;;;3.45;1.13;;;11.10;47.30;;;;;;5345388;26;20812;-50
2024/04/18 00:32:37;;;;;;;2.38;0.95;;;11.10;47.40;;;;;;5343443;26;20063;-51
2024/04/18 00:35:40;;;;;;;1.92;0.85;;;11.00;47.30;;;;;;5345811;26;20594;-52
2024/04/18 00:38:29;;;;;;;1.60;1.05;;;11.00;47.30;;;;;;5357863;26;20019;-49
2024/04/18 00:41:14;;;;;;;4.47;1.10;;;10.90;47.10;;;;;;5350794;26;20027;-48
2024/04/18 00:44:15;;;;;;;4.22;0.95;;;10.90;47.20;;;;;;5341684;26;20011;-50
2024/04/18 00:47:00;;;;;;;3.88;1.38;;;10.80;47.10;;;;;;5340027;26;20060;-49
2024/04/18 00:49:49;;;;;;;3.33;1.25;;;10.80;47.70;;;;;;5341350;26;20269;-49
2024/04/18 00:52:33;;;;;;;2.00;1.17;;;10.80;47.20;;;;;;5347750;26;20561;-50
2024/04/18 00:55:18;;;;;;;4.00;1.08;;;10.80;47.20;;;;;;5352015;26;20816;-48
2024/04/18 00:58:03;;;;;;;1.55;0.85;;;10.70;47.10;;;;;;5339805;26;20090;-49
2024/04/18 01:00:59;;;;;;;4.05;2.20;;;10.70;47.10;;;;;;5350736;26;20563;-51
2024/04/18 01:04:03;;;;;;;6.40;1.23;;;10.70;47.20;;;;;;5328103;26;20263;-48
2024/04/18 01:07:00;;;;;;;1.98;1.10;;;10.60;47.00;;;;;;5348059;26;20011;-48
2024/04/18 01:10:03;;;;;;;2.88;1.00;;;10.60;47.10;;;;;;5348932;26;20466;-51
2024/04/18 01:13:01;;;;;;;3.42;1.05;;;10.50;46.90;;;;;;5337194;26;20010;-52
2024/04/18 01:16:05;;;;;;;2.60;0.90;;;10.60;47.20;;;;;;5340621;26;20696;-50
2024/04/18 01:18:49;;;;;;;2.78;0.90;;;10.50;46.90;;;;;;5347901;26;20010;-48
2024/04/18 01:21:34;;;;;;;2.47;0.90;;;10.50;47.00;;;;;;5346658;26;20786;-52
2024/04/18 01:24:18;;;;;;;1.60;0.90;;;10.50;47.00;;;;;;5313867;26;20012;-50
2024/04/18 01:27:04;;;;;;;2.05;1.33;;;10.40;46.90;;;;;;5334187;26;20075;-51
2024/04/18 01:30:01;;;;;;;2.17;0.93;;;10.40;46.90;;;;;;5321935;26;20016;-47
2024/04/18 01:32:54;;;;;;;2.92;0.90;;;10.40;46.90;;;;;;5340222;26;20330;-48
2024/04/18 01:35:40;;;;;;;5.75;1.23;;;10.40;46.90;;;;;;5347123;26;20015;-48
2024/04/18 01:38:37;;;;;;;4.05;1.20;;;10.30;46.70;;;;;;5325288;26;20019;-47
2024/04/18 01:41:42;;;;;;;2.58;0.88;;;10.40;47.00;;;;;;5343736;26;20011;-48
2024/04/18 01:44:47;;;;;;;2.70;1.15;;;10.30;46.80;;;;;;5346963;26;20460;-50
2024/04/18 01:47:51;;;;;;;3.67;1.17;;;10.30;46.80;;;;;;5341278;26;25675;-49
2024/04/18 01:50:35;;;;;;;2.90;1.27;;;10.30;46.80;;;;;;5340829;26;20544;-49
2024/04/18 01:53:20;;;;;;;2.72;0.95;;;10.20;46.70;;;;;;5321857;26;20692;-51
2024/04/18 01:56:05;;;;;;;3.03;0.90;;;10.20;46.80;;;;;;5352006;26;20011;-49
2024/04/18 01:59:04;;;;;;;2.92;1.00;;;10.20;46.80;;;;;;5344585;26;20019;-48
2024/04/18 02:01:49;;;;;;;3.33;1.08;;;10.10;46.60;;;;;;5314996;26;20154;-51
2024/04/18 02:04:34;;;;;;;2.53;1.20;;;10.10;46.70;;;;;;5350206;26;20023;-53
2024/04/18 02:07:19;;;;;;;2.03;0.98;;;10.10;46.70;;;;;;5327419;26;20048;-52
2024/04/18 02:10:20;;;;;;;1.90;1.17;;;10.00;46.60;;;;;;5363587;26;20019;-48
2024/04/18 02:13:20;;;;;;;1.90;1.02;;;10.00;46.60;;;;;;5317498;26;20010;-51
2024/04/18 02:16:04;;;;;;;2.25;0.82;;;10.00;46.70;;;;;;5350682;26;20019;-50
2024/04/18 02:19:15;;;;;;;2.45;1.10;;;9.90;46.50;;;;;;5343439;26;20237;-50
2024/04/18 02:22:23;;;;;;;4.32;1.02;;;9.90;47.20;;;;;;5311487;26;20102;-49
2024/04/18 02:25:27;;;;;;;2.00;0.90;;;9.90;46.60;;;;;;5351066;26;20085;-51
2024/04/18 02:28:11;;;;;;;2.45;1.23;;;9.80;46.40;;;;;;5347519;26;20129;-49
2024/04/18 02:31:03;;;;;;;2.65;0.98;;;9.80;46.50;;;;;;5347585;26;20066;-52
2024/04/18 02:34:07;;;;;;;2.63;1.27;;;9.70;46.40;;;;;;5338096;26;20050;-49
2024/04/18 02:37:09;;;;;;;3.15;0.93;;;9.70;46.40;;;;;;5337636;26;20081;-48
2024/04/18 02:39:54;;;;;;;1.42;1.00;;;9.70;46.40;;;;;;5338005;26;20015;-50
2024/04/18 02:42:41;;;;;;;2.13;1.13;;;9.70;46.50;;;;;;5341552;26;20007;-51
2024/04/18 02:45:46;;;;;;;2.63;0.85;;;9.60;46.40;;;;;;5347023;26;20018;-50
2024/04/18 02:48:49;;;;;;;4.35;1.38;;;9.60;46.40;;;;;;5347864;26;20019;-49
2024/04/18 02:51:43;;;;;;;6.43;1.38;;;9.50;46.20;;;;;;5344872;26;20462;-51
2024/04/18 02:54:31;;;;;;;1.70;0.80;;;9.50;46.30;;;;;;5352454;26;20023;-51
2024/04/18 02:57:16;;;;;;;2.13;1.05;;;9.40;46.20;;;;;;5363063;26;20614;-51
2024/04/18 03:00:00;;;;;;;2.95;1.30;;;9.40;46.30;;;;;;5362440;26;20359;-52
2024/04/18 03:02:45;;;;;;;2.88;1.40;;;9.40;46.30;;;;;;5352196;26;20102;-52
2024/04/18 03:05:36;;;;;;;4.07;1.83;;;9.30;46.20;;;;;;5351022;26;20082;-50
2024/04/18 03:08:21;;;;;;;2.67;1.23;;;9.30;46.20;;;;;;5353165;26;20023;-52
2024/04/18 03:11:05;;;;;;;1.63;1.20;;;9.20;46.10;;;;;;5351359;26;20015;-48
2024/04/18 03:13:53;;;;;;;2.17;1.00;;;9.20;46.10;;;;;;5357134;26;20022;-50
2024/04/18 03:16:50;;;;;;;4.13;1.38;;;9.20;46.20;;;;;;5375613;26;20176;-51
2024/04/18 03:19:37;;;;;;;2.78;2.17;;;9.10;46.10;;;;;;5385806;26;20081;-50
2024/04/18 03:22:41;;;;;;;5.43;1.70;;;9.10;46.20;;;;;;5363682;26;20014;-51
2024/04/18 03:25:25;;;;;;;1.60;0.93;;;9.10;46.30;;;;;;5358017;26;20018;-54
2024/04/18 03:28:19;;;;;;;;;;;9.00;46.10;;;;;;5381281;26;20568;-51
2024/04/18 03:31:04;;;;;;;2.70;1.27;;;9.00;46.10;;;;;;5376440;26;20332;-53
2024/04/18 03:33:49;;;;;;;2.30;1.38;;;8.90;45.90;;;;;;5374953;26;20100;-49
2024/04/18 03:36:41;;;;;;;1.83;1.27;;;8.90;46.00;;;;;;5385556;26;20063;-49
2024/04/18 03:39:46;;;;;;;1.40;1.13;;;8.80;45.90;;;;;;5371671;26;20584;-48
2024/04/18 03:42:31;;;;;;;2.80;1.30;;;8.80;45.90;;;;;;5384330;26;20014;-51
2024/04/18 03:45:16;;;;;;;3.15;0.95;;;8.80;46.60;;;;;;5388310;26;20073;-51
2024/04/18 03:48:00;;;;;;;2.60;0.93;;;8.70;45.90;;;;;;5349776;26;20518;-54
2024/04/18 03:51:01;;;;;;;2.38;1.10;;;8.70;46.00;;;;;;5386522;26;20618;-50
2024/04/18 03:54:05;;;;;;;3.03;1.45;;;8.70;46.10;;;;;;5372060;26;20063;-52
2024/04/18 03:57:09;;;;;;;;;;;8.60;45.90;;;;;;5386714;26;20053;-53
2024/04/18 03:59:53;;;;;;;1.33;1.10;;;8.60;45.90;;;;;;5383633;26;19990;-50
2024/04/18 04:02:39;;;;;;;1.95;0.93;;;8.50;45.70;;;;;;5404878;26;20013;-52
2024/04/18 04:05:24;;;;;;;3.25;1.20;;;8.50;45.80;;;;;;5358986;26;20081;-50
2024/04/18 04:08:12;;;;;;;3.53;1.48;;;8.40;45.70;;;;;;5385984;26;20415;-50
2024/04/18 04:10:56;;;;;;;2.42;1.10;;;8.40;45.80;;;;;;5377875;26;20367;-50
2024/04/18 04:13:41;;;;;;;4.78;1.27;;;8.40;45.90;;;;;;5367646;26;20081;-52
2024/04/18 04:16:35;;;;;;;2.00;1.27;;;8.30;45.70;;;;;;5387096;26;20063;-52
2024/04/18 04:19:37;;;;;;;3.13;1.67;;;8.30;46.40;;;;;;5384677;26;20072;-52
2024/04/18 04:22:22;;;;;;;3.65;1.95;;;8.30;45.80;;;;;;5373884;26;20015;-50
2024/04/18 04:25:07;;;;;;;2.15;1.40;;;8.20;45.70;;;;;;5385411;26;20448;-53
2024/04/18 04:27:52;;;;;;;2.38;1.60;;;8.30;45.90;;;;;;5369941;26;20529;-51
2024/04/18 04:30:37;;;;;;;3.22;1.45;;;8.20;45.80;;;;;;5389060;26;20598;-50
2024/04/18 04:33:21;;;;;;;4.05;1.50;;;8.20;45.90;;;;;;5382702;26;20048;-49
2024/04/18 04:36:06;;;;;;;1.48;1.35;;;8.20;45.90;;;;;;5384490;26;20410;-49
2024/04/18 04:38:51;;;;;;;4.60;1.30;;;8.20;46.00;;;;;;5342298;26;20443;-53
2024/04/18 04:41:52;;;;;;;2.38;1.63;;;8.10;45.80;;;;;;5388616;26;20043;-47
2024/04/18 04:44:37;;;;;;;4.30;1.40;;;8.10;45.90;;;;;;5383408;26;20475;-51
2024/04/18 04:47:42;;;;;;;2.65;1.50;;;8.10;46.50;;;;;;5399014;26;20504;-53
2024/04/18 04:50:53;;;;;;;3.97;1.50;;;8.10;46.00;;;;;;5390967;26;20006;-51
2024/04/18 04:53:38;;;;;;;5.90;1.92;;;8.00;45.90;;;;;;5360808;26;20043;-60
2024/04/18 04:56:22;;;;;;;2.85;1.45;;;8.00;45.90;;;;;;5380034;26;20343;-51
2024/04/18 04:59:27;;;;;;;2.28;1.73;;;8.00;45.90;;;;;;5385322;26;20125;-52
2024/04/18 05:02:12;;;;;;;5.22;2.10;;;7.90;45.80;;;;;;5373377;26;20007;-49
2024/04/18 05:05:08;;;;;;;3.70;1.50;;;7.90;45.90;;;;;;5353887;26;20067;-51
2024/04/18 05:07:54;;;;;;;3.55;1.67;;;7.90;45.90;;;;;;5381378;26;20114;-52
2024/04/18 05:10:57;;;;;;;3.92;1.42;;;7.90;46.00;;;;;;5374494;26;20010;-51
2024/04/18 05:13:42;;;;;;;1.95;1.50;;;7.80;45.80;;;;;;5370310;26;20218;-51
2024/04/18 05:16:39;;;;;;;2.40;1.27;;;7.80;45.80;;;;;;5352538;26;20066;-52
2024/04/18 05:19:29;;;;;;;4.00;1.83;;;7.80;45.80;;;;;;5371211;26;20023;-49
2024/04/18 05:22:17;;;;;;;3.72;1.92;;;7.80;45.90;;;;;;5356729;26;20105;-49
2024/04/18 05:25:05;;;;;;;3.95;2.00;;;7.80;45.90;;;;;;5383163;26;20011;-52
2024/04/18 05:28:12;;;;;;;3.60;1.70;;;7.80;45.90;;;;;;5319850;26;20029;-51
2024/04/18 05:31:00;;;;;;;6.22;2.22;;;7.80;46.00;;;;;;5352335;26;20409;-52
2024/04/18 05:33:45;;;;;;;3.55;2.45;;;7.70;45.80;;;;;;5346797;26;20026;-51
2024/04/18 05:36:30;;;;;;;5.55;1.50;;;7.70;45.80;;;;;;5349623;26;20085;-50
2024/04/18 05:39:22;;;;;;;2.08;1.48;;;7.70;45.90;;;;;;5367366;26;20529;-53
2024/04/18 05:42:06;;;;;;;3.40;1.60;;;7.70;45.90;;;;;;5354902;26;20080;-48
2024/04/18 05:44:51;;;;;;;3.15;1.88;;;7.70;45.90;;;;;;5353688;26;20081;-49
2024/04/18 05:47:36;;;;;;;2.70;1.83;;;7.70;46.00;;;;;;5377240;26;20827;-49
2024/04/18 05:50:21;;;;;;;5.00;1.73;;;7.70;46.00;;;;;;5371871;26;20436;-51
2024/04/18 05:53:06;;;;;;;4.55;2.10;;;7.70;46.00;;;;;;5355668;26;20393;-51
2024/04/18 05:56:10;;;;;;;2.38;1.63;;;7.70;46.00;;;;;;5366475;26;20014;-50
2024/04/18 05:58:55;;;;;;;4.97;1.52;;;7.80;46.10;;;;;;5310660;26;20014;-51
2024/04/18 06:01:41;;;;;;;4.03;1.67;;;7.80;46.00;;;;;;5343781;26;20500;-51
2024/04/18 06:04:26;;;;;;;6.05;1.77;;;7.90;46.20;;;;;;5350983;26;20019;-52
2024/04/18 06:07:50;;;;;;;3.35;1.70;;;7.90;46.10;;;;;;5276231;26;20615;-50
2024/04/18 06:10:37;;;;;;;2.88;1.65;;;8.00;46.20;;;;;;5278365;26;20083;-50
2024/04/18 06:13:38;;;;;;;3.17;1.50;;;8.10;46.30;;;;;;5353156;26;20015;-53
2024/04/18 06:16:23;;;;;;;3.60;2.05;;;8.10;46.20;;;;;;5359839;26;20415;-49
2024/04/18 06:19:08;;;;;;;2.20;1.60;;;8.20;46.20;;;;;;5360337;26;20015;-51
2024/04/18 06:21:53;;;;;;;1.60;1.50;;;8.40;46.50;;;;;;5346457;26;20085;-49
2024/04/18 06:24:39;;;;;;;3.65;1.65;;;8.60;46.70;;;;;;5343224;26;20006;-49
2024/04/18 06:27:40;;;;;;;2.70;1.13;;;8.70;46.60;;;;;;5353756;26;20035;-47
2024/04/18 06:30:25;;;;;;;2.75;1.80;;;8.90;46.70;;;;;;5316875;26;20018;-48
2024/04/18 06:33:10;;;;;;;5.50;1.52;;;9.20;46.90;;;;;;5340565;26;20079;-50
2024/04/18 06:35:55;;;;;;;5.30;2.22;;;9.30;46.80;;;;;;5347332;26;20007;-49
2024/04/18 06:38:40;;;;;;;2.60;1.65;;;9.60;47.10;;;;;;5348694;26;20100;-48
2024/04/18 06:41:25;;;;;;;3.95;1.70;;;9.80;47.10;;;;;;5349267;26;20367;-51
2024/04/18 06:44:10;;;;;;;1.70;1.33;;;10.00;47.20;;;;;;5342484;26;20365;-49
2024/04/18 06:46:54;;;;;;;4.65;1.60;;;10.20;47.10;;;;;;5346932;26;20367;-47
2024/04/18 06:49:39;;;;;;;3.72;1.80;;;10.50;47.30;;;;;;5343866;26;20019;-47
2024/04/18 06:52:23;;;;;;;2.63;1.60;;;10.70;47.30;;;;;;5357167;26;20379;-51
2024/04/18 06:55:09;;;;;;;3.30;1.45;;;11.00;47.30;;;;;;5349092;26;20656;-50
2024/04/18 06:58:00;;;;;;;3.92;2.03;;;11.30;48.00;;;;;;5346527;26;20011;-51
2024/04/18 07:00:46;;;;;;;5.15;2.00;;;11.50;47.30;;;;;;5350424;26;20425;-50
2024/04/18 07:03:31;;;;;;;3.45;1.88;;;11.70;47.30;;;;;;5361037;26;20532;-49
2024/04/18 07:06:16;;;;;;;2.35;1.70;;;11.90;47.30;;;;;;5358763;26;20489;-50
2024/04/18 07:09:19;;;;;;;5.53;1.80;;;12.10;47.20;;;;;;5328450;26;20022;-52
2024/04/18 07:12:05;;;;;;;19.67;13.07;;;12.30;47.20;;;;;;5318424;26;20048;-49
2024/04/18 07:14:50;;;;;;;41.08;29.45;;;12.50;47.20;;;;;;5352207;26;20041;-50
2024/04/18 07:17:56;;;;;;;38.88;27.40;;;12.70;47.70;;;;;;5369902;26;20342;-50
2024/04/18 07:20:42;;;;;;;40.28;25.88;;;13.10;48.40;;;;;;5389805;26;20549;-50
2024/04/18 07:23:26;;;;;;;34.60;23.35;;;13.30;48.80;;;;;;5382874;26;20597;-48
2024/04/18 07:26:11;;;;;;;32.28;22.92;;;13.60;49.20;;;;;;5375030;26;20042;-54
2024/04/18 07:28:55;;;;;;;25.10;18.75;;;13.80;49.60;;;;;;5336496;26;20122;-48
2024/04/18 07:31:40;;;;;;;27.77;18.80;;;13.80;49.70;;;;;;5381354;26;20412;-49
2024/04/18 07:34:31;;;;;;;27.30;16.45;;;13.90;50.00;;;;;;5378759;26;20010;-51
2024/04/18 07:37:15;;;;;;;35.47;19.52;;;14.00;50.10;;;;;;5392977;26;20318;-47
2024/04/18 07:40:08;;;;;;;23.38;15.85;;;14.00;50.30;;;;;;5327247;26;20026;-57
2024/04/18 07:42:53;;;;;;;24.52;14.07;;;14.10;51.00;;;;;;5374756;26;20072;-51
2024/04/18 07:45:39;;;;;;;18.35;13.93;;;14.30;51.60;;;;;;5382017;26;20038;-47
2024/04/18 07:48:24;;;;;;;16.70;12.77;;;14.70;52.10;;;;;;5373595;26;20443;-49
2024/04/18 07:51:08;;;;;;;15.93;12.63;;;15.00;52.20;;;;;;5379377;26;20012;-50
2024/04/18 07:53:56;;;;;;;13.82;10.07;;;15.30;52.20;;;;;;5388546;26;20068;-51
2024/04/18 07:56:41;;;;;;;18.40;10.43;;;15.60;52.40;;;;;;5383865;26;20023;-50
2024/04/18 07:59:26;;;;;;;15.15;10.55;;;15.90;52.40;;;;;;5382466;26;20019;-48
2024/04/18 08:02:12;;;;;;;14.80;8.40;;;16.20;52.70;;;;;;5371205;26;20007;-47
2024/04/18 08:04:56;;;;;;;10.73;7.93;;;16.30;52.70;;;;;;5380317;26;20568;-50
2024/04/18 08:07:41;;;;;;;11.23;8.18;;;16.50;53.00;;;;;;5390783;26;20793;-53
2024/04/18 08:10:26;;;;;;;8.80;6.05;;;16.50;52.70;;;;;;5380100;26;20022;-51
2024/04/18 08:13:11;;;;;;;9.35;6.78;;;16.50;52.50;;;;;;5348043;26;20006;-49
2024/04/18 08:16:00;;;;;;;8.57;5.43;;;16.40;52.30;;;;;;5358928;26;20077;-50
2024/04/18 08:18:44;;;;;;;10.52;5.90;;;16.20;52.10;;;;;;5385269;26;20054;-52
2024/04/18 08:21:29;;;;;;;9.30;5.50;;;16.00;52.00;;;;;;5378531;26;20042;-51
2024/04/18 08:24:21;;;;;;;10.93;5.22;;;15.90;52.00;;;;;;5388063;26;20015;-51
2024/04/18 08:27:06;;;;;;;8.27;4.20;;;15.70;51.80;;;;;;5376714;26;20073;-52
2024/04/18 08:29:51;;;;;;;7.18;3.53;;;15.60;51.80;;;;;;5371615;26;20014;-50
2024/04/18 08:32:36;;;;;;;7.43;4.88;;;15.50;51.70;;;;;;5393854;26;20076;-52
2024/04/18 08:35:20;;;;;;;7.00;3.90;;;15.40;51.60;;;;;;5386244;26;20006;-46
2024/04/18 08:38:08;;;;;;;6.15;2.97;;;15.30;51.40;;;;;;5386949;26;20487;-51
2024/04/18 08:40:54;;;;;;;9.27;3.35;;;15.20;51.30;;;;;;5385267;26;20019;-51
2024/04/18 08:43:40;;;;;;;5.40;2.95;;;15.10;51.20;;;;;;5359155;26;20010;-49
2024/04/18 08:46:25;;;;;;;5.18;3.38;;;15.00;51.00;;;;;;5362195;26;20018;-50
2024/04/18 08:49:13;;;;;;;6.63;3.35;;;15.00;50.90;;;;;;5381762;26;20031;-52
2024/04/18 08:51:59;;;;;;;4.90;3.00;;;15.00;50.90;;;;;;5384746;26;20018;-53
2024/04/18 08:54:44;;;;;;;4.28;2.92;;;14.90;50.80;;;;;;5397701;26;20354;-49
2024/04/18 08:57:34;;;;;;;5.22;3.00;;;15.00;51.20;;;;;;5379832;26;20011;-49
2024/04/18 09:00:19;;;;;;;5.90;3.30;;;15.00;51.20;;;;;;5394581;26;20484;-49
2024/04/18 09:03:05;;;;;;;3.70;2.38;;;15.00;51.20;;;;;;5373588;26;20420;-50
2024/04/18 09:05:49;;;;;;;4.93;2.58;;;15.00;51.10;;;;;;5372030;26;20661;-48
2024/04/18 09:08:34;;;;;;;4.38;2.75;;;15.10;51.20;;;;;;5386342;26;20358;-49
2024/04/18 09:11:19;;;;;;;4.18;2.10;;;15.10;51.00;;;;;;5386694;26;20567;-51
2024/04/18 09:14:05;;;;;;;5.47;2.50;;;15.20;50.90;;;;;;5379774;26;20366;-49
2024/04/18 09:16:50;;;;;;;4.50;2.40;;;15.20;50.70;;;;;;5357274;26;20015;-47
2024/04/18 09:19:35;;;;;;;5.35;1.90;;;15.30;50.70;;;;;;5346543;26;20389;-48
2024/04/18 09:22:21;;;;;;;4.88;2.38;;;15.40;50.70;;;;;;5331265;26;20008;-47
2024/04/18 09:25:08;;;;;;;4.72;2.30;;;15.40;50.40;;;;;;5325307;26;20417;-51
2024/04/18 09:27:53;;;;;;;5.75;2.15;;;15.50;50.30;;;;;;5354824;26;20755;-47
2024/04/18 09:30:39;;;;;;;3.47;1.42;;;15.60;50.10;;;;;;5356729;26;20608;-64
2024/04/18 09:33:25;;;;;;;3.85;2.25;;;15.70;50.10;;;;;;5328270;26;20376;-49
2024/04/18 09:36:12;;;;;;;3.20;1.27;;;15.80;50.10;;;;;;5348802;26;20097;-45
2024/04/18 09:39:02;;;;;;;4.03;1.60;;;15.90;50.00;;;;;;5343122;26;20586;-49
2024/04/18 09:42:13;;;;;;;3.90;1.70;;;16.00;49.90;;;;;;5339298;26;20942;-50
2024/04/18 09:45:03;;;;;;;4.95;2.67;;;16.10;49.70;;;;;;5303872;26;20093;-55
2024/04/18 09:47:49;;;;;;;2.75;1.50;;;16.30;49.80;;;;;;5344102;26;20085;-49
2024/04/18 09:50:34;;;;;;;3.25;1.67;;;16.40;49.70;;;;;;5339042;26;20019;-48
2024/04/18 09:53:21;;;;;;;2.25;1.98;;;16.50;49.60;;;;;;5338130;26;20015;-51
2024/04/18 09:56:07;;;;;;;3.70;1.23;;;16.60;49.40;;;;;;5351028;26;20247;-48
2024/04/18 09:58:52;;;;;;;4.65;1.77;;;16.60;49.20;;;;;;5345551;26;20492;-63
2024/04/18 10:01:39;;;;;;;1.75;1.10;;;16.60;49.20;;;;;;5352764;26;20507;-49
2024/04/18 10:04:24;;;;;;;3.25;1.33;;;16.60;49.10;;;;;;5350587;26;20019;-52
2024/04/18 10:07:12;;;;;;;2.13;1.10;;;16.80;49.30;;;;;;5344307;26;20015;-51
2024/04/18 10:09:57;;;;;;;3.70;1.10;;;16.80;48.90;;;;;;5353475;26;20011;-48
2024/04/18 10:12:41;;;;;;;4.28;1.48;;;16.90;48.90;;;;;;5351791;26;20972;-48
2024/04/18 10:15:26;;;;;;;3.58;1.65;;;16.90;48.70;;;;;;5377207;26;20498;-50
2024/04/18 10:18:15;;;;;;;2.97;1.65;;;17.00;48.80;;;;;;5386700;26;20018;-50
2024/04/18 10:21:08;;;;;;;4.50;1.50;;;17.00;48.50;;;;;;5377212;26;20035;-52
2024/04/18 10:23:53;;;;;;;2.85;1.75;;;17.00;48.30;;;;;;5373621;26;20015;-53
2024/04/18 10:26:39;;;;;;;2.35;1.33;;;17.10;48.50;;;;;;5390092;26;20018;-46
2024/04/18 10:29:25;;;;;;;3.60;1.60;;;17.10;48.40;;;;;;5387504;26;20015;-49
2024/04/18 10:32:11;;;;;;;4.70;1.33;;;17.10;48.20;;;;;;5359135;26;20513;-49
2024/04/18 10:34:57;;;;;;;3.85;1.65;;;17.20;48.30;;;;;;5368375;26;20023;-50
2024/04/18 10:37:54;;;;;;;2.72;0.93;;;17.20;48.10;;;;;;5380595;26;20088;-48
2024/04/18 10:40:59;;;;;;;1.90;1.40;;;17.20;47.90;;;;;;5357148;26;20009;-46
2024/04/18 10:43:45;;;;;;;2.97;1.20;;;17.30;47.90;;;;;;5374793;26;20097;-49
2024/04/18 10:46:30;;;;;;;2.08;1.17;;;17.30;47.90;;;;;;5381224;26;20017;-51
2024/04/18 10:49:15;;;;;;;3.10;0.90;;;17.30;47.60;;;;;;5382087;26;20022;-51
2024/04/18 10:52:01;;;;;;;2.95;0.98;;;17.40;47.60;;;;;;5354681;26;20007;-49
2024/04/18 10:54:46;;;;;;;1.77;0.85;;;17.40;47.50;;;;;;5371459;26;20432;-48
2024/04/18 10:57:31;;;;;;;2.10;0.90;;;17.50;47.50;;;;;;5382768;26;20053;-47
2024/04/18 11:00:16;;;;;;;2.28;0.60;;;17.60;47.50;;;;;;5381187;26;20621;-52
2024/04/18 11:03:01;;;;;;;2.35;0.90;;;17.60;47.50;;;;;;5370712;26;20014;-46
2024/04/18 11:05:46;;;;;;;2.65;0.90;;;17.70;48.00;;;;;;5388217;26;20017;-49
2024/04/18 11:08:41;;;;;;;1.90;0.93;;;17.90;48.40;;;;;;5390956;26;20019;-48
2024/04/18 11:11:27;;;;;;;1.77;1.05;;;18.00;48.50;;;;;;5379334;26;20006;-50
2024/04/18 11:14:13;;;;;;;1.63;0.68;;;18.20;48.70;;;;;;5383215;26;20569;-51
2024/04/18 11:17:00;;;;;;;1.88;0.75;;;18.40;48.90;;;;;;5385071;26;20378;-47
2024/04/18 11:19:44;;;;;;;2.08;0.80;;;18.50;48.90;;;;;;5385406;26;20015;-49
2024/04/18 11:22:29;;;;;;;2.28;0.60;;;18.70;49.00;;;;;;5384440;26;20109;-48
2024/04/18 11:25:14;;;;;;;2.75;0.75;;;18.80;48.90;;;;;;5385700;26;20081;-51
2024/04/18 11:28:19;;;;;;;1.80;0.60;;;18.90;48.70;;;;;;5378704;26;20018;-48
2024/04/18 11:31:04;;;;;;;1.73;0.80;;;19.00;48.70;;;;;;5379295;26;20009;-48
2024/04/18 11:33:50;;;;;;;1.23;0.50;;;19.10;48.70;;;;;;5345662;26;20011;-51
2024/04/18 11:36:38;;;;;;;4.85;0.65;;;19.30;48.80;;;;;;5369037;26;20783;-49
2024/04/18 11:39:22;;;;;;;0.55;0.40;;;19.30;48.60;;;;;;5402607;26;20006;-47
2024/04/18 11:42:07;;;;;;;1.13;0.60;;;19.40;48.50;;;;;;5393478;26;20145;-48
2024/04/18 11:44:52;;;;;;;0.65;0.35;;;19.50;48.40;;;;;;5370541;26;20632;-51
2024/04/18 11:47:37;;;;;;;1.50;0.75;;;19.60;48.30;;;;;;5386159;26;20010;-48
2024/04/18 11:50:22;;;;;;;2.05;0.52;;;19.70;48.10;;;;;;5384368;26;20017;-54
2024/04/18 11:53:09;;;;;;;0.55;0.40;;;19.90;48.00;;;;;;5402368;26;20010;-53
2024/04/18 11:55:53;;;;;;;0.63;0.30;;;20.00;48.00;;;;;;5385278;26;20551;-52
2024/04/18 11:58:44;;;;;;;0.73;0.50;;;20.20;48.10;;;;;;5382467;26;20026;-49
2024/04/18 12:01:48;;;;;;;0.45;0.40;;;20.30;47.90;;;;;;5380566;26;20547;-51
2024/04/18 12:04:39;;;;;;;1.17;0.88;;;20.40;47.70;;;;;;5383116;26;20014;-51
2024/04/18 12:07:33;;;;;;;0.80;0.63;;;20.50;47.70;;;;;;5379286;26;20081;-52
2024/04/18 12:10:19;;;;;;;1.92;0.80;;;20.70;48.00;;;;;;5380218;26;20069;-48
2024/04/18 12:13:20;;;;;;;1.50;0.60;;;20.80;48.00;;;;;;5375208;26;20037;-50
2024/04/18 12:16:14;;;;;;;1.75;0.65;;;20.90;48.00;;;;;;5381954;26;20018;-49
2024/04/18 12:18:58;;;;;;;1.48;0.45;;;21.10;48.00;;;;;;5356384;26;20018;-47
2024/04/18 12:21:44;;;;;;;3.25;0.98;;;21.20;47.60;;;;;;5395974;26;20826;-49
2024/04/18 12:24:29;;;;;;;2.00;0.65;;;21.40;47.50;;;;;;5384578;26;20110;-50
2024/04/18 12:27:26;;;;;;;1.48;0.60;;;21.40;47.30;;;;;;5383092;26;20069;-48
2024/04/18 12:30:13;;;;;;;1.33;0.63;;;21.60;47.50;;;;;;5378576;26;20904;-52
2024/04/18 12:32:58;;;;;;;0.50;0.43;;;21.70;47.30;;;;;;5379074;26;20030;-46
2024/04/18 12:35:43;;;;;;;1.58;0.65;;;21.90;47.40;;;;;;5385384;26;20014;-50
2024/04/18 12:38:28;;;;;;;2.22;0.60;;;22.00;47.30;;;;;;5382535;26;20493;-48
2024/04/18 12:41:16;;;;;;;1.85;0.50;;;22.20;47.40;;;;;;5371319;26;20048;-47
2024/04/18 12:44:01;;;;;;;2.58;0.70;;;22.40;47.40;;;;;;5387511;26;20480;-52
2024/04/18 12:47:04;;;;;;;0.85;0.60;;;22.60;47.40;;;;;;5383526;26;20078;-50
2024/04/18 12:50:04;;;;;;;2.17;0.77;;;22.70;47.40;;;;;;5374003;26;20115;-51
2024/04/18 12:52:48;;;;;;;1.98;0.80;;;22.90;47.60;;;;;;5383704;26;20543;-49
2024/04/18 12:55:35;;;;;;;0.95;0.60;;;23.00;47.40;;;;;;5387716;26;20061;-49
2024/04/18 12:58:20;;;;;;;1.77;0.68;;;23.10;47.40;;;;;;5397983;26;20079;-51
2024/04/18 13:01:24;;;;;;;1.77;0.60;;;23.20;47.40;;;;;;5377717;26;20055;-50
2024/04/18 13:04:10;;;;;;;0.73;0.50;;;23.30;47.40;;;;;;5399177;26;20010;-50
2024/04/18 13:07:05;;;;;;;0.70;0.40;;;23.30;47.10;;;;;;5370628;26;20098;-48
2024/04/18 13:09:50;;;;;;;0.63;0.45;;;23.40;47.20;;;;;;5354604;26;20117;-50
2024/04/18 13:12:35;;;;;;;1.48;0.50;;;23.40;47.10;;;;;;5365550;26;20397;-51
2024/04/18 13:15:40;;;;;;;0.95;0.50;;;23.40;46.80;;;;;;5386765;26;20150;-49
2024/04/18 13:18:25;;;;;;;1.33;0.60;;;23.50;46.80;;;;;;5391055;26;20032;-50
2024/04/18 13:21:16;;;;;;;0.70;0.47;;;23.60;46.70;;;;;;5396485;26;20149;-49
2024/04/18 13:24:01;;;;;;;0.90;0.40;;;23.60;46.30;;;;;;5373866;26;20010;-51
2024/04/18 13:26:46;;;;;;;1.27;0.80;;;23.70;46.10;;;;;;5382447;26;20108;-51
2024/04/18 13:29:34;;;;;;;0.88;0.50;;;23.70;45.80;;;;;;5353423;26;20047;-51
2024/04/18 13:32:38;;;;;;;1.77;0.85;;;23.80;45.70;;;;;;5380640;26;20173;-53
2024/04/18 13:35:24;;;;;;;0.82;0.40;;;23.90;45.50;;;;;;5384518;26;20022;-52
2024/04/18 13:38:08;;;;;;;0.60;0.25;;;24.00;45.30;;;;;;5377969;26;20083;-49
2024/04/18 13:41:11;;;;;;;0.30;0.25;;;24.10;45.90;;;;;;5394537;26;20567;-48
2024/04/18 13:43:58;;;;;;;0.90;0.32;;;24.10;45.10;;;;;;5384930;26;20596;-51
2024/04/18 13:46:53;;;;;;;0.20;0.20;;;24.10;44.90;;;;;;5386761;26;20021;-49
2024/04/18 13:49:56;;;;;;;0.77;0.30;;;24.20;44.90;;;;;;5378834;26;20016;-50
2024/04/18 13:52:41;;;;;;;0.55;0.30;;;24.30;44.80;;;;;;5399131;26;20576;-48
2024/04/18 13:55:25;;;;;;;1.10;0.40;;;24.40;44.60;;;;;;5380188;26;20014;-51
2024/04/18 13:58:10;;;;;;;1.25;0.30;;;24.40;44.30;;;;;;5365070;26;20026;-51
2024/04/18 14:01:13;;;;;;;0.95;0.25;;;24.50;44.20;;;;;;5363593;26;20097;-51
2024/04/18 14:04:18;;;;;;;0.77;0.30;;;24.60;44.10;;;;;;5384773;26;20457;-50
2024/04/18 14:07:03;;;;;;;0.65;0.22;;;24.60;43.90;;;;;;5377313;26;20164;-51
2024/04/18 14:09:48;;;;;;;0.40;0.28;;;24.70;43.60;;;;;;5377831;26;20014;-51
2024/04/18 14:12:33;;;;;;;0.70;0.52;;;24.70;43.50;;;;;;5375289;26;20011;-47
2024/04/18 14:15:27;;;;;;;0.22;0.10;;;24.70;43.30;;;;;;5390801;26;20197;-49
2024/04/18 14:18:51;;;;;;;0.40;0.30;;;24.70;43.10;;;;;;5387602;26;20036;-48
2024/04/18 14:21:51;;;;;;;0.88;0.68;;;24.70;43.00;;;;;;5392245;26;20005;-48
2024/04/18 14:24:36;;;;;;;0.50;0.30;;;24.70;42.90;;;;;;5388100;26;20046;-49
2024/04/18 14:27:22;;;;;;;0.50;0.30;;;24.70;42.70;;;;;;5383387;26;20066;-51
2024/04/18 14:30:16;;;;;;;0.93;0.60;;;24.70;42.60;;;;;;5381203;26;20410;-47
2024/04/18 14:33:02;;;;;;;2.35;0.63;;;24.70;42.90;;;;;;5377578;26;20026;-52
2024/04/18 14:35:47;;;;;;;0.75;0.22;;;24.80;42.60;;;;;;5382236;26;20022;-46
2024/04/18 14:38:31;;;;;;;0.60;0.40;;;24.90;42.50;;;;;;5375127;26;20011;-49
2024/04/18 14:41:16;;;;;;;2.05;0.70;;;24.90;42.50;;;;;;5356506;26;20602;-49
2024/04/18 14:44:03;;;;;;;0.65;0.30;;;25.00;42.60;;;;;;5356367;26;20014;-50